Paddy Guidry — WTG3900 — position and weather

sailwx.info

Track history (hours):
 
Tides and Currents Weather Stations Pressure Air Temp Water Temp Dewpoint Dewpoint Depression Visibility Wind Speed Wind Dir Waves Ship Positions

Paddy Guidry

Owner: CAPTAIN TIMMY INC, GALLIANO, LA. More information available from US FCC via Universal Licensing System and Coast Guard Vessel Documentation Center.

Last reported at 2015-Jan-29 10:21 UTC. Time now 2015-Jan-29 12:27 UTC.
Position N 29°36' W 090°40'.

; draft 1.5 m.

Type: Tug. MMSI: 366998310.

Date/timePositionNaut miles runAvg speedWind from/ knotsBaromVisibWave heightAir tempDewpointWater temp
2015-Jan-29 10:21N 29°36' W 090°40'4 4.3
2015-Jan-29 09:26N 29°35' W 090°36'4 4.0
2015-Jan-29 08:26N 29°34' W 090°31'5 4.9
2015-Jan-29 07:29N 29°33' W 090°26'3 2.8
2015-Jan-29 06:33N 29°34' W 090°23'0 0.0
2015-Jan-29 05:29N 29°34' W 090°23'2 2.0
2015-Jan-29 04:33N 29°36' W 090°22'6 4.2
2015-Jan-29 03:11N 29°39' W 090°16'5 4.9
2015-Jan-29 02:04N 29°41' W 090°10'  
2015-Jan-25 14:18N 29°38' W 090°03'  
Track history (hours):
 
Tides and Currents Weather Stations Pressure Air Temp Water Temp Dewpoint Dewpoint Depression Visibility Wind Speed Wind Dir Waves Ship Positions

Paddy Guidry

Owner: CAPTAIN TIMMY INC, GALLIANO, LA. More information available from US FCC via Universal Licensing System and Coast Guard Vessel Documentation Center.

Last reported at 2015-Jan-29 10:21 UTC. Time now 2015-Jan-29 12:27 UTC.
Position N 29°36' W 090°40'.

; draft 1.5 m.

Type: Tug. MMSI: 366998310.

Date/timePositionNaut miles runAvg speedWind from/ knotsBaromVisibWave heightAir tempDewpointWater temp
2015-Jan-29 10:21N 29°36' W 090°40'4 4.3
2015-Jan-29 09:26N 29°35' W 090°36'4 4.0
2015-Jan-29 08:26N 29°34' W 090°31'5 4.9
2015-Jan-29 07:29N 29°33' W 090°26'3 2.8
2015-Jan-29 06:33N 29°34' W 090°23'0 0.0
2015-Jan-29 05:29N 29°34' W 090°23'2 2.0
2015-Jan-29 04:33N 29°36' W 090°22'6 4.2
2015-Jan-29 03:11N 29°39' W 090°16'5 4.9
2015-Jan-29 02:04N 29°41' W 090°10'  
2015-Jan-25 14:18N 29°38' W 090°03'  

Dump ship's entire track history